sensor_id;sensor_type;location;lat;lon;timestamp;temperature;humidity
39751;DHT22;37579;51.074;17.004;2023-08-01T00:00:55;26.20;54.30
39751;DHT22;37579;51.074;17.004;2023-08-01T00:03:22;26.20;54.20
39751;DHT22;37579;51.074;17.004;2023-08-01T00:05:48;26.20;54.20
39751;DHT22;37579;51.074;17.004;2023-08-01T00:08:14;26.20;54.30
39751;DHT22;37579;51.074;17.004;2023-08-01T00:10:42;26.20;54.30
39751;DHT22;37579;51.074;17.004;2023-08-01T00:13:08;26.20;54.30
39751;DHT22;37579;51.074;17.004;2023-08-01T00:15:35;26.20;54.30
39751;DHT22;37579;51.074;17.004;2023-08-01T00:18:01;26.20;54.30
39751;DHT22;37579;51.074;17.004;2023-08-01T00:20:27;26.20;54.20
39751;DHT22;37579;51.074;17.004;2023-08-01T00:22:52;26.20;54.20
39751;DHT22;37579;51.074;17.004;2023-08-01T00:25:18;26.20;54.10
39751;DHT22;37579;51.074;17.004;2023-08-01T00:27:44;26.20;54.20
39751;DHT22;37579;51.074;17.004;2023-08-01T00:30:10;26.20;54.20
39751;DHT22;37579;51.074;17.004;2023-08-01T00:32:37;26.20;54.20
39751;DHT22;37579;51.074;17.004;2023-08-01T00:35:03;26.20;54.30
39751;DHT22;37579;51.074;17.004;2023-08-01T00:37:30;26.20;54.10
39751;DHT22;37579;51.074;17.004;2023-08-01T00:39:56;26.20;54.20
39751;DHT22;37579;51.074;17.004;2023-08-01T00:42:22;26.20;54.10
39751;DHT22;37579;51.074;17.004;2023-08-01T00:44:47;26.10;54.20
39751;DHT22;37579;51.074;17.004;2023-08-01T00:47:14;26.20;54.20
39751;DHT22;37579;51.074;17.004;2023-08-01T00:49:40;26.20;54.20
39751;DHT22;37579;51.074;17.004;2023-08-01T00:52:07;26.10;54.20
39751;DHT22;37579;51.074;17.004;2023-08-01T00:54:34;26.20;54.90
39751;DHT22;37579;51.074;17.004;2023-08-01T00:57:03;26.10;54.00
39751;DHT22;37579;51.074;17.004;2023-08-01T00:59:29;26.20;54.10
39751;DHT22;37579;51.074;17.004;2023-08-01T01:01:56;26.20;54.10
39751;DHT22;37579;51.074;17.004;2023-08-01T01:04:22;26.10;54.10
39751;DHT22;37579;51.074;17.004;2023-08-01T01:06:52;26.20;54.10
39751;DHT22;37579;51.074;17.004;2023-08-01T01:09:20;26.20;54.00
39751;DHT22;37579;51.074;17.004;2023-08-01T01:11:46;26.10;54.00
39751;DHT22;37579;51.074;17.004;2023-08-01T01:14:13;26.20;54.00
39751;DHT22;37579;51.074;17.004;2023-08-01T01:16:38;26.20;54.00
39751;DHT22;37579;51.074;17.004;2023-08-01T01:19:08;26.20;54.00
39751;DHT22;37579;51.074;17.004;2023-08-01T01:21:35;26.20;53.90
39751;DHT22;37579;51.074;17.004;2023-08-01T01:24:03;26.20;53.90
39751;DHT22;37579;51.074;17.004;2023-08-01T01:26:32;26.10;54.00
39751;DHT22;37579;51.074;17.004;2023-08-01T01:28:58;26.10;54.10
39751;DHT22;37579;51.074;17.004;2023-08-01T01:31:25;26.10;53.90
39751;DHT22;37579;51.074;17.004;2023-08-01T01:33:52;26.20;54.00
39751;DHT22;37579;51.074;17.004;2023-08-01T01:36:18;26.10;54.00
39751;DHT22;37579;51.074;17.004;2023-08-01T01:38:44;26.10;54.00
39751;DHT22;37579;51.074;17.004;2023-08-01T01:41:09;26.10;54.00
39751;DHT22;37579;51.074;17.004;2023-08-01T01:43:36;26.10;54.00
39751;DHT22;37579;51.074;17.004;2023-08-01T01:46:03;26.10;54.10
39751;DHT22;37579;51.074;17.004;2023-08-01T01:48:29;26.10;54.20
39751;DHT22;37579;51.074;17.004;2023-08-01T01:50:55;26.10;54.10
39751;DHT22;37579;51.074;17.004;2023-08-01T01:53:21;26.10;54.10
39751;DHT22;37579;51.074;17.004;2023-08-01T01:55:47;26.10;54.00
39751;DHT22;37579;51.074;17.004;2023-08-01T01:58:13;26.20;53.90
39751;DHT22;37579;51.074;17.004;2023-08-01T02:00:39;26.20;54.10
39751;DHT22;37579;51.074;17.004;2023-08-01T02:03:05;26.10;54.10
39751;DHT22;37579;51.074;17.004;2023-08-01T02:05:36;26.10;54.40
39751;DHT22;37579;51.074;17.004;2023-08-01T02:08:02;26.10;54.40
39751;DHT22;37579;51.074;17.004;2023-08-01T02:10:31;26.10;54.30
39751;DHT22;37579;51.074;17.004;2023-08-01T02:12:57;26.10;54.40
39751;DHT22;37579;51.074;17.004;2023-08-01T02:15:22;26.10;54.40
39751;DHT22;37579;51.074;17.004;2023-08-01T02:17:48;26.10;54.30
39751;DHT22;37579;51.074;17.004;2023-08-01T02:20:14;26.10;54.40
39751;DHT22;37579;51.074;17.004;2023-08-01T02:22:40;26.10;54.50
39751;DHT22;37579;51.074;17.004;2023-08-01T02:25:06;26.10;54.50
39751;DHT22;37579;51.074;17.004;2023-08-01T02:27:32;26.10;54.60
39751;DHT22;37579;51.074;17.004;2023-08-01T02:29:57;26.10;54.70
39751;DHT22;37579;51.074;17.004;2023-08-01T02:32:23;26.10;54.70
39751;DHT22;37579;51.074;17.004;2023-08-01T02:34:50;26.10;54.90
39751;DHT22;37579;51.074;17.004;2023-08-01T02:37:16;26.10;54.80
39751;DHT22;37579;51.074;17.004;2023-08-01T02:39:42;26.10;54.70
39751;DHT22;37579;51.074;17.004;2023-08-01T02:42:07;26.10;54.80
39751;DHT22;37579;51.074;17.004;2023-08-01T02:44:34;26.10;55.40
39751;DHT22;37579;51.074;17.004;2023-08-01T02:46:59;26.10;54.90
39751;DHT22;37579;51.074;17.004;2023-08-01T02:49:25;26.10;54.90
39751;DHT22;37579;51.074;17.004;2023-08-01T02:51:51;26.10;54.80
39751;DHT22;37579;51.074;17.004;2023-08-01T02:54:17;26.10;54.90
39751;DHT22;37579;51.074;17.004;2023-08-01T02:56:43;26.10;54.90
39751;DHT22;37579;51.074;17.004;2023-08-01T02:59:09;26.10;54.80
39751;DHT22;37579;51.074;17.004;2023-08-01T03:01:38;26.10;54.90
39751;DHT22;37579;51.074;17.004;2023-08-01T03:04:05;26.10;54.90
39751;DHT22;37579;51.074;17.004;2023-08-01T03:06:34;26.10;55.00
39751;DHT22;37579;51.074;17.004;2023-08-01T03:09:00;26.10;55.00
39751;DHT22;37579;51.074;17.004;2023-08-01T03:11:26;26.10;55.00
39751;DHT22;37579;51.074;17.004;2023-08-01T03:13:52;26.10;54.80
39751;DHT22;37579;51.074;17.004;2023-08-01T03:16:18;26.10;54.90
39751;DHT22;37579;51.074;17.004;2023-08-01T03:18:44;26.00;54.90
39751;DHT22;37579;51.074;17.004;2023-08-01T03:21:10;26.10;55.00
39751;DHT22;37579;51.074;17.004;2023-08-01T03:23:36;26.00;55.00
39751;DHT22;37579;51.074;17.004;2023-08-01T03:26:02;26.00;54.80
39751;DHT22;37579;51.074;17.004;2023-08-01T03:28:28;26.00;55.00
39751;DHT22;37579;51.074;17.004;2023-08-01T03:30:54;26.10;55.00
39751;DHT22;37579;51.074;17.004;2023-08-01T03:33:20;26.00;54.80
39751;DHT22;37579;51.074;17.004;2023-08-01T03:35:47;26.10;55.00
39751;DHT22;37579;51.074;17.004;2023-08-01T03:38:12;26.00;54.90
39751;DHT22;37579;51.074;17.004;2023-08-01T03:40:38;26.00;54.80
39751;DHT22;37579;51.074;17.004;2023-08-01T03:43:04;26.10;54.70
39751;DHT22;37579;51.074;17.004;2023-08-01T03:45:32;26.10;54.70
39751;DHT22;37579;51.074;17.004;2023-08-01T03:47:58;26.10;54.60
39751;DHT22;37579;51.074;17.004;2023-08-01T03:50:25;26.10;55.30
39751;DHT22;37579;51.074;17.004;2023-08-01T03:52:50;26.00;54.80
39751;DHT22;37579;51.074;17.004;2023-08-01T03:55:17;26.10;54.70
39751;DHT22;37579;51.074;17.004;2023-08-01T03:57:43;26.10;54.90
39751;DHT22;37579;51.074;17.004;2023-08-01T04:00:09;26.00;54.70
39751;DHT22;37579;51.074;17.004;2023-08-01T04:02:42;26.10;54.70
39751;DHT22;37579;51.074;17.004;2023-08-01T04:05:08;26.10;54.60
39751;DHT22;37579;51.074;17.004;2023-08-01T04:07:36;26.10;54.50
39751;DHT22;37579;51.074;17.004;2023-08-01T04:10:02;26.10;54.70
39751;DHT22;37579;51.074;17.004;2023-08-01T04:12:29;26.10;54.70
39751;DHT22;37579;51.074;17.004;2023-08-01T04:14:55;26.10;54.70
39751;DHT22;37579;51.074;17.004;2023-08-01T04:17:21;26.10;54.60
39751;DHT22;37579;51.074;17.004;2023-08-01T04:19:46;26.10;54.50
39751;DHT22;37579;51.074;17.004;2023-08-01T04:22:12;26.10;54.50
39751;DHT22;37579;51.074;17.004;2023-08-01T04:24:38;26.10;54.50
39751;DHT22;37579;51.074;17.004;2023-08-01T04:27:04;26.10;54.50
39751;DHT22;37579;51.074;17.004;2023-08-01T04:29:30;26.10;54.40
39751;DHT22;37579;51.074;17.004;2023-08-01T04:31:56;26.10;54.60
39751;DHT22;37579;51.074;17.004;2023-08-01T04:34:22;26.10;54.60
39751;DHT22;37579;51.074;17.004;2023-08-01T04:36:48;26.10;54.70
39751;DHT22;37579;51.074;17.004;2023-08-01T04:39:14;26.10;54.80
39751;DHT22;37579;51.074;17.004;2023-08-01T04:41:40;26.10;54.80
39751;DHT22;37579;51.074;17.004;2023-08-01T04:44:05;26.10;54.80
39751;DHT22;37579;51.074;17.004;2023-08-01T04:46:32;26.10;54.60
39751;DHT22;37579;51.074;17.004;2023-08-01T04:48:58;26.10;54.60
39751;DHT22;37579;51.074;17.004;2023-08-01T04:51:24;26.10;54.60
39751;DHT22;37579;51.074;17.004;2023-08-01T04:53:50;26.10;54.60
39751;DHT22;37579;51.074;17.004;2023-08-01T04:56:16;26.10;54.70
39751;DHT22;37579;51.074;17.004;2023-08-01T04:58:42;26.10;54.70
39751;DHT22;37579;51.074;17.004;2023-08-01T05:01:08;26.10;54.80
39751;DHT22;37579;51.074;17.004;2023-08-01T05:03:34;26.10;54.90
39751;DHT22;37579;51.074;17.004;2023-08-01T05:05:59;26.10;54.70
39751;DHT22;37579;51.074;17.004;2023-08-01T05:08:25;26.10;54.70
39751;DHT22;37579;51.074;17.004;2023-08-01T05:10:51;26.10;54.90
39751;DHT22;37579;51.074;17.004;2023-08-01T05:13:18;26.10;54.90
39751;DHT22;37579;51.074;17.004;2023-08-01T05:15:45;26.10;54.90
39751;DHT22;37579;51.074;17.004;2023-08-01T05:18:14;26.10;55.00
39751;DHT22;37579;51.074;17.004;2023-08-01T05:20:40;26.10;55.00
39751;DHT22;37579;51.074;17.004;2023-08-01T05:23:05;26.10;55.00
39751;DHT22;37579;51.074;17.004;2023-08-01T05:25:31;26.10;54.90
39751;DHT22;37579;51.074;17.004;2023-08-01T05:27:57;26.00;54.90
39751;DHT22;37579;51.074;17.004;2023-08-01T05:30:24;26.10;55.00
39751;DHT22;37579;51.074;17.004;2023-08-01T05:32:50;26.10;54.90
39751;DHT22;37579;51.074;17.004;2023-08-01T05:35:17;26.10;54.90
39751;DHT22;37579;51.074;17.004;2023-08-01T05:37:43;26.10;54.90
39751;DHT22;37579;51.074;17.004;2023-08-01T05:40:09;26.10;55.00
39751;DHT22;37579;51.074;17.004;2023-08-01T05:42:35;26.10;55.00
39751;DHT22;37579;51.074;17.004;2023-08-01T05:45:01;26.10;55.40
39751;DHT22;37579;51.074;17.004;2023-08-01T05:47:27;26.10;55.00
39751;DHT22;37579;51.074;17.004;2023-08-01T05:49:52;26.10;54.90
39751;DHT22;37579;51.074;17.004;2023-08-01T05:52:18;26.10;55.00
39751;DHT22;37579;51.074;17.004;2023-08-01T05:54:44;26.10;55.00
39751;DHT22;37579;51.074;17.004;2023-08-01T05:57:10;26.10;55.10
39751;DHT22;37579;51.074;17.004;2023-08-01T05:59:36;26.10;55.00
39751;DHT22;37579;51.074;17.004;2023-08-01T06:02:02;26.10;55.00
39751;DHT22;37579;51.074;17.004;2023-08-01T06:04:28;26.10;55.10
39751;DHT22;37579;51.074;17.004;2023-08-01T06:06:54;26.00;55.30
39751;DHT22;37579;51.074;17.004;2023-08-01T06:09:20;26.00;55.20
39751;DHT22;37579;51.074;17.004;2023-08-01T06:11:46;26.10;55.20
39751;DHT22;37579;51.074;17.004;2023-08-01T06:14:11;26.00;55.20
39751;DHT22;37579;51.074;17.004;2023-08-01T06:16:37;26.10;55.30
39751;DHT22;37579;51.074;17.004;2023-08-01T06:19:03;26.00;55.20
39751;DHT22;37579;51.074;17.004;2023-08-01T06:21:29;26.10;55.30
39751;DHT22;37579;51.074;17.004;2023-08-01T06:23:55;26.10;55.40
39751;DHT22;37579;51.074;17.004;2023-08-01T06:26:21;26.10;55.40
39751;DHT22;37579;51.074;17.004;2023-08-01T06:28:47;26.10;55.50
39751;DHT22;37579;51.074;17.004;2023-08-01T06:31:12;26.10;55.60
39751;DHT22;37579;51.074;17.004;2023-08-01T06:33:38;26.00;55.50
39751;DHT22;37579;51.074;17.004;2023-08-01T06:36:05;26.00;55.50
39751;DHT22;37579;51.074;17.004;2023-08-01T06:38:31;26.00;55.60
39751;DHT22;37579;51.074;17.004;2023-08-01T06:40:56;26.00;55.60
39751;DHT22;37579;51.074;17.004;2023-08-01T06:43:22;26.00;55.70
39751;DHT22;37579;51.074;17.004;2023-08-01T06:45:50;26.00;55.60
39751;DHT22;37579;51.074;17.004;2023-08-01T06:48:16;26.00;55.70
39751;DHT22;37579;51.074;17.004;2023-08-01T06:50:41;26.00;55.80
39751;DHT22;37579;51.074;17.004;2023-08-01T06:53:07;26.00;55.80
39751;DHT22;37579;51.074;17.004;2023-08-01T06:55:34;26.00;55.80
39751;DHT22;37579;51.074;17.004;2023-08-01T06:58:00;26.00;55.70
39751;DHT22;37579;51.074;17.004;2023-08-01T07:00:25;26.00;55.70
39751;DHT22;37579;51.074;17.004;2023-08-01T07:02:51;26.00;55.70
39751;DHT22;37579;51.074;17.004;2023-08-01T07:05:17;26.00;55.80
39751;DHT22;37579;51.074;17.004;2023-08-01T07:07:43;26.00;55.80
39751;DHT22;37579;51.074;17.004;2023-08-01T07:10:09;26.00;55.80
39751;DHT22;37579;51.074;17.004;2023-08-01T07:12:35;26.00;55.80
39751;DHT22;37579;51.074;17.004;2023-08-01T07:15:00;26.00;55.70
39751;DHT22;37579;51.074;17.004;2023-08-01T07:17:26;26.00;55.80
39751;DHT22;37579;51.074;17.004;2023-08-01T07:19:52;26.00;55.80
39751;DHT22;37579;51.074;17.004;2023-08-01T07:22:19;26.00;55.70
39751;DHT22;37579;51.074;17.004;2023-08-01T07:24:44;26.00;55.80
39751;DHT22;37579;51.074;17.004;2023-08-01T07:27:10;26.00;55.80
39751;DHT22;37579;51.074;17.004;2023-08-01T07:29:37;26.00;55.90
39751;DHT22;37579;51.074;17.004;2023-08-01T07:32:04;26.00;55.80
39751;DHT22;37579;51.074;17.004;2023-08-01T07:34:30;26.10;55.80
39751;DHT22;37579;51.074;17.004;2023-08-01T07:36:56;26.00;55.70
39751;DHT22;37579;51.074;17.004;2023-08-01T07:39:22;26.10;55.80
39751;DHT22;37579;51.074;17.004;2023-08-01T07:41:47;26.00;55.70
39751;DHT22;37579;51.074;17.004;2023-08-01T07:44:13;26.10;55.90
39751;DHT22;37579;51.074;17.004;2023-08-01T07:46:39;26.00;55.80
39751;DHT22;37579;51.074;17.004;2023-08-01T07:49:05;26.10;55.80
39751;DHT22;37579;51.074;17.004;2023-08-01T07:51:31;26.10;55.90
39751;DHT22;37579;51.074;17.004;2023-08-01T07:53:57;26.10;55.90
39751;DHT22;37579;51.074;17.004;2023-08-01T07:56:22;26.10;55.80
39751;DHT22;37579;51.074;17.004;2023-08-01T07:58:48;26.00;56.00
39751;DHT22;37579;51.074;17.004;2023-08-01T08:01:14;26.00;56.30
39751;DHT22;37579;51.074;17.004;2023-08-01T08:03:40;26.00;56.20
39751;DHT22;37579;51.074;17.004;2023-08-01T08:06:05;26.00;56.20
39751;DHT22;37579;51.074;17.004;2023-08-01T08:08:31;26.00;56.20
39751;DHT22;37579;51.074;17.004;2023-08-01T08:10:59;26.00;56.20
39751;DHT22;37579;51.074;17.004;2023-08-01T08:13:26;26.00;56.30
39751;DHT22;37579;51.074;17.004;2023-08-01T08:15:54;26.00;56.50
39751;DHT22;37579;51.074;17.004;2023-08-01T08:18:20;26.00;56.30
39751;DHT22;37579;51.074;17.004;2023-08-01T08:20:46;26.00;56.40
39751;DHT22;37579;51.074;17.004;2023-08-01T08:23:12;26.00;56.40
39751;DHT22;37579;51.074;17.004;2023-08-01T08:25:41;26.00;56.40
39751;DHT22;37579;51.074;17.004;2023-08-01T08:28:08;26.00;56.40
39751;DHT22;37579;51.074;17.004;2023-08-01T08:30:35;26.00;56.50
39751;DHT22;37579;51.074;17.004;2023-08-01T08:33:00;26.00;56.60
39751;DHT22;37579;51.074;17.004;2023-08-01T08:35:30;26.00;56.40
39751;DHT22;37579;51.074;17.004;2023-08-01T08:37:58;26.00;56.50
39751;DHT22;37579;51.074;17.004;2023-08-01T08:40:24;26.00;56.70
39751;DHT22;37579;51.074;17.004;2023-08-01T08:42:52;26.00;56.60
39751;DHT22;37579;51.074;17.004;2023-08-01T08:45:19;26.00;56.40
39751;DHT22;37579;51.074;17.004;2023-08-01T08:47:50;26.00;56.70
39751;DHT22;37579;51.074;17.004;2023-08-01T08:50:20;26.00;56.80
39751;DHT22;37579;51.074;17.004;2023-08-01T08:52:46;26.00;56.80
39751;DHT22;37579;51.074;17.004;2023-08-01T08:55:12;26.00;56.80
39751;DHT22;37579;51.074;17.004;2023-08-01T08:57:38;26.00;56.70
39751;DHT22;37579;51.074;17.004;2023-08-01T09:00:05;26.00;56.80
39751;DHT22;37579;51.074;17.004;2023-08-01T09:02:34;26.00;56.70
39751;DHT22;37579;51.074;17.004;2023-08-01T09:05:00;25.60;59.30
39751;DHT22;37579;51.074;17.004;2023-08-01T09:07:29;25.20;60.80
39751;DHT22;37579;51.074;17.004;2023-08-01T09:09:56;25.40;60.20
39751;DHT22;37579;51.074;17.004;2023-08-01T09:12:22;25.60;58.60
39751;DHT22;37579;51.074;17.004;2023-08-01T09:14:50;25.80;58.50
39751;DHT22;37579;51.074;17.004;2023-08-01T09:17:16;25.80;58.10
39751;DHT22;37579;51.074;17.004;2023-08-01T09:19:44;25.80;58.10
39751;DHT22;37579;51.074;17.004;2023-08-01T09:22:11;25.80;58.10
39751;DHT22;37579;51.074;17.004;2023-08-01T09:24:37;25.80;58.10
39751;DHT22;37579;51.074;17.004;2023-08-01T09:27:04;25.80;58.20
39751;DHT22;37579;51.074;17.004;2023-08-01T09:29:34;25.90;58.00
39751;DHT22;37579;51.074;17.004;2023-08-01T09:31:59;25.90;58.10
39751;DHT22;37579;51.074;17.004;2023-08-01T09:34:26;26.00;58.20
39751;DHT22;37579;51.074;17.004;2023-08-01T09:36:59;26.00;57.90
39751;DHT22;37579;51.074;17.004;2023-08-01T09:39:25;26.00;57.90
39751;DHT22;37579;51.074;17.004;2023-08-01T09:41:56;26.00;58.00
39751;DHT22;37579;51.074;17.004;2023-08-01T09:44:22;26.00;58.10
39751;DHT22;37579;51.074;17.004;2023-08-01T09:47:02;26.00;57.80
39751;DHT22;37579;51.074;17.004;2023-08-01T09:49:28;26.10;57.90
39751;DHT22;37579;51.074;17.004;2023-08-01T09:51:54;26.10;57.80
39751;DHT22;37579;51.074;17.004;2023-08-01T09:54:21;26.10;57.80
39751;DHT22;37579;51.074;17.004;2023-08-01T09:56:49;26.10;57.80
39751;DHT22;37579;51.074;17.004;2023-08-01T09:59:20;26.10;57.80
39751;DHT22;37579;51.074;17.004;2023-08-01T10:01:48;26.10;57.70
39751;DHT22;37579;51.074;17.004;2023-08-01T10:04:18;26.10;57.90
39751;DHT22;37579;51.074;17.004;2023-08-01T10:06:48;26.10;57.80
39751;DHT22;37579;51.074;17.004;2023-08-01T10:09:16;26.10;57.60
39751;DHT22;37579;51.074;17.004;2023-08-01T10:11:44;26.20;57.60
39751;DHT22;37579;51.074;17.004;2023-08-01T10:14:10;26.20;57.70
39751;DHT22;37579;51.074;17.004;2023-08-01T10:16:36;26.20;57.70
39751;DHT22;37579;51.074;17.004;2023-08-01T10:19:06;26.30;57.50
39751;DHT22;37579;51.074;17.004;2023-08-01T10:21:32;26.40;57.60
39751;DHT22;37579;51.074;17.004;2023-08-01T10:23:58;26.40;57.70
39751;DHT22;37579;51.074;17.004;2023-08-01T10:26:25;26.40;58.00
39751;DHT22;37579;51.074;17.004;2023-08-01T10:28:53;26.30;57.80
39751;DHT22;37579;51.074;17.004;2023-08-01T10:31:19;26.30;58.00
39751;DHT22;37579;51.074;17.004;2023-08-01T10:33:47;26.20;57.90
39751;DHT22;37579;51.074;17.004;2023-08-01T10:38:51;26.30;57.90
39751;DHT22;37579;51.074;17.004;2023-08-01T10:41:25;26.30;58.00
39751;DHT22;37579;51.074;17.004;2023-08-01T10:43:51;26.40;57.80
39751;DHT22;37579;51.074;17.004;2023-08-01T10:46:17;26.40;57.80
39751;DHT22;37579;51.074;17.004;2023-08-01T10:48:52;26.40;57.80
39751;DHT22;37579;51.074;17.004;2023-08-01T10:51:18;26.40;57.80
39751;DHT22;37579;51.074;17.004;2023-08-01T10:53:44;26.40;57.80
39751;DHT22;37579;51.074;17.004;2023-08-01T10:56:18;26.40;57.50
39751;DHT22;37579;51.074;17.004;2023-08-01T10:58:45;26.40;57.70
39751;DHT22;37579;51.074;17.004;2023-08-01T11:01:11;26.40;57.60
39751;DHT22;37579;51.074;17.004;2023-08-01T11:03:38;26.40;58.00
39751;DHT22;37579;51.074;17.004;2023-08-01T11:06:05;26.40;58.00
39751;DHT22;37579;51.074;17.004;2023-08-01T11:08:41;26.40;57.90
39751;DHT22;37579;51.074;17.004;2023-08-01T11:11:11;26.40;57.90
39751;DHT22;37579;51.074;17.004;2023-08-01T11:13:38;26.40;57.90
39751;DHT22;37579;51.074;17.004;2023-08-01T11:16:05;26.40;58.00
39751;DHT22;37579;51.074;17.004;2023-08-01T11:18:44;26.50;57.60
39751;DHT22;37579;51.074;17.004;2023-08-01T11:21:10;26.50;57.20
39751;DHT22;37579;51.074;17.004;2023-08-01T11:23:36;26.50;57.30
39751;DHT22;37579;51.074;17.004;2023-08-01T11:26:08;26.60;57.00
39751;DHT22;37579;51.074;17.004;2023-08-01T11:28:34;26.60;56.80
39751;DHT22;37579;51.074;17.004;2023-08-01T11:31:00;26.60;57.00
39751;DHT22;37579;51.074;17.004;2023-08-01T11:33:26;26.50;56.80
39751;DHT22;37579;51.074;17.004;2023-08-01T11:35:55;26.60;57.20
39751;DHT22;37579;51.074;17.004;2023-08-01T11:38:29;26.60;57.00
39751;DHT22;37579;51.074;17.004;2023-08-01T11:40:58;26.60;56.80
39751;DHT22;37579;51.074;17.004;2023-08-01T11:43:24;26.60;56.90
39751;DHT22;37579;51.074;17.004;2023-08-01T11:45:54;26.60;56.70
39751;DHT22;37579;51.074;17.004;2023-08-01T11:48:23;26.60;57.30
39751;DHT22;37579;51.074;17.004;2023-08-01T11:50:55;26.60;56.40
39751;DHT22;37579;51.074;17.004;2023-08-01T11:53:22;26.60;56.70
39751;DHT22;37579;51.074;17.004;2023-08-01T11:55:51;26.70;56.90
39751;DHT22;37579;51.074;17.004;2023-08-01T11:58:41;26.70;57.00
39751;DHT22;37579;51.074;17.004;2023-08-01T12:01:11;26.60;56.70
39751;DHT22;37579;51.074;17.004;2023-08-01T12:06:09;26.30;57.10
39751;DHT22;37579;51.074;17.004;2023-08-01T12:08:38;26.10;57.10
39751;DHT22;37579;51.074;17.004;2023-08-01T12:11:04;26.30;57.20
39751;DHT22;37579;51.074;17.004;2023-08-01T12:13:29;26.30;57.30
39751;DHT22;37579;51.074;17.004;2023-08-01T12:15:57;26.30;57.00
39751;DHT22;37579;51.074;17.004;2023-08-01T12:18:24;26.40;57.30
39751;DHT22;37579;51.074;17.004;2023-08-01T12:20:51;26.40;56.80
39751;DHT22;37579;51.074;17.004;2023-08-01T12:23:17;26.40;56.90
39751;DHT22;37579;51.074;17.004;2023-08-01T12:25:43;26.40;56.50
39751;DHT22;37579;51.074;17.004;2023-08-01T12:28:09;26.40;56.50
39751;DHT22;37579;51.074;17.004;2023-08-01T12:30:35;26.40;56.00
39751;DHT22;37579;51.074;17.004;2023-08-01T12:33:00;26.40;56.60
39751;DHT22;37579;51.074;17.004;2023-08-01T12:35:26;26.40;56.00
39751;DHT22;37579;51.074;17.004;2023-08-01T12:37:55;26.40;56.50
39751;DHT22;37579;51.074;17.004;2023-08-01T12:40:22;26.40;56.90
39751;DHT22;37579;51.074;17.004;2023-08-01T12:42:47;26.40;56.50
39751;DHT22;37579;51.074;17.004;2023-08-01T12:45:13;26.40;56.10
39751;DHT22;37579;51.074;17.004;2023-08-01T12:47:39;26.40;56.50
39751;DHT22;37579;51.074;17.004;2023-08-01T12:50:05;26.40;56.80
39751;DHT22;37579;51.074;17.004;2023-08-01T12:52:32;26.40;56.90
39751;DHT22;37579;51.074;17.004;2023-08-01T12:54:57;26.40;56.80
39751;DHT22;37579;51.074;17.004;2023-08-01T12:57:23;26.40;57.30
39751;DHT22;37579;51.074;17.004;2023-08-01T12:59:49;26.40;57.40
39751;DHT22;37579;51.074;17.004;2023-08-01T13:02:15;26.40;58.20
39751;DHT22;37579;51.074;17.004;2023-08-01T13:04:41;26.40;57.20
39751;DHT22;37579;51.074;17.004;2023-08-01T13:07:06;26.40;57.20
39751;DHT22;37579;51.074;17.004;2023-08-01T13:09:32;26.40;56.20
39751;DHT22;37579;51.074;17.004;2023-08-01T13:11:58;26.40;58.00
39751;DHT22;37579;51.074;17.004;2023-08-01T13:14:25;26.40;56.90
39751;DHT22;37579;51.074;17.004;2023-08-01T13:16:51;26.40;56.80
39751;DHT22;37579;51.074;17.004;2023-08-01T13:19:18;26.40;57.10
39751;DHT22;37579;51.074;17.004;2023-08-01T13:21:44;26.40;57.20
39751;DHT22;37579;51.074;17.004;2023-08-01T13:24:10;26.40;57.40
39751;DHT22;37579;51.074;17.004;2023-08-01T13:26:36;26.40;57.40
39751;DHT22;37579;51.074;17.004;2023-08-01T13:29:01;26.50;57.40
39751;DHT22;37579;51.074;17.004;2023-08-01T13:31:27;26.50;57.60
39751;DHT22;37579;51.074;17.004;2023-08-01T13:33:54;26.50;57.20
39751;DHT22;37579;51.074;17.004;2023-08-01T13:36:21;26.50;57.00
39751;DHT22;37579;51.074;17.004;2023-08-01T13:38:47;26.50;56.70
39751;DHT22;37579;51.074;17.004;2023-08-01T13:41:14;26.50;56.90
39751;DHT22;37579;51.074;17.004;2023-08-01T13:43:40;26.50;56.30
39751;DHT22;37579;51.074;17.004;2023-08-01T13:46:15;26.60;56.20
39751;DHT22;37579;51.074;17.004;2023-08-01T13:48:44;26.60;55.90
39751;DHT22;37579;51.074;17.004;2023-08-01T13:51:10;26.60;56.00
39751;DHT22;37579;51.074;17.004;2023-08-01T13:53:36;26.60;55.60
39751;DHT22;37579;51.074;17.004;2023-08-01T13:56:11;26.70;55.30
39751;DHT22;37579;51.074;17.004;2023-08-01T13:58:40;26.70;55.40
39751;DHT22;37579;51.074;17.004;2023-08-01T14:01:08;26.70;55.70
39751;DHT22;37579;51.074;17.004;2023-08-01T14:03:35;26.70;55.40
39751;DHT22;37579;51.074;17.004;2023-08-01T14:06:08;26.70;55.30
39751;DHT22;37579;51.074;17.004;2023-08-01T14:08:35;26.80;54.60
39751;DHT22;37579;51.074;17.004;2023-08-01T14:11:05;26.70;55.50
39751;DHT22;37579;51.074;17.004;2023-08-01T14:13:31;26.70;56.10
39751;DHT22;37579;51.074;17.004;2023-08-01T14:15:57;26.70;55.60
39751;DHT22;37579;51.074;17.004;2023-08-01T14:18:23;26.70;55.20
39751;DHT22;37579;51.074;17.004;2023-08-01T14:20:49;26.70;56.40
39751;DHT22;37579;51.074;17.004;2023-08-01T14:23:14;26.70;54.90
39751;DHT22;37579;51.074;17.004;2023-08-01T14:25:40;26.60;54.60
39751;DHT22;37579;51.074;17.004;2023-08-01T14:28:06;26.60;55.40
39751;DHT22;37579;51.074;17.004;2023-08-01T14:30:32;26.60;54.70
39751;DHT22;37579;51.074;17.004;2023-08-01T14:33:02;26.60;54.80
39751;DHT22;37579;51.074;17.004;2023-08-01T14:35:29;26.60;54.80
39751;DHT22;37579;51.074;17.004;2023-08-01T14:37:55;26.60;54.80
39751;DHT22;37579;51.074;17.004;2023-08-01T14:40:24;26.50;54.80
39751;DHT22;37579;51.074;17.004;2023-08-01T14:42:50;26.60;55.70
39751;DHT22;37579;51.074;17.004;2023-08-01T14:45:16;26.50;54.40
39751;DHT22;37579;51.074;17.004;2023-08-01T14:47:42;26.50;54.20
39751;DHT22;37579;51.074;17.004;2023-08-01T14:50:12;26.50;55.10
39751;DHT22;37579;51.074;17.004;2023-08-01T14:52:39;26.50;54.50
39751;DHT22;37579;51.074;17.004;2023-08-01T14:55:06;26.40;54.90
39751;DHT22;37579;51.074;17.004;2023-08-01T14:57:32;26.40;55.50
39751;DHT22;37579;51.074;17.004;2023-08-01T14:59:58;26.50;54.40
39751;DHT22;37579;51.074;17.004;2023-08-01T15:02:23;26.40;55.00
39751;DHT22;37579;51.074;17.004;2023-08-01T15:04:56;26.40;54.40
39751;DHT22;37579;51.074;17.004;2023-08-01T15:07:25;26.50;55.60
39751;DHT22;37579;51.074;17.004;2023-08-01T15:09:51;26.40;55.10
39751;DHT22;37579;51.074;17.004;2023-08-01T15:12:18;26.40;55.20
39751;DHT22;37579;51.074;17.004;2023-08-01T15:14:49;26.40;55.20
39751;DHT22;37579;51.074;17.004;2023-08-01T15:17:15;26.40;55.20